This is the latest recevied weather packets stored in our database for station/object BMCB-2. If no packets are shown the sender has not sent any weather packets the latest 10 day(s).
| Time | Temp. | Humidity | Pressure | Rain* | Wind** | Luminosity | Snow |
|---|---|---|---|---|---|---|---|
| 1777674666 | 8.89° C | 72% | 1023.4 hPa | 0 mm | - | 0 W/m² | - |
| 1777671069 | 10° C | 69% | 1023.5 hPa | 0 mm | - | 0 W/m² | - |
| 1777669270 | 10.56° C | 65% | 1023.6 hPa | 0 mm | - | 0 W/m² | - |
| 1777663871 | 13.89° C | 50% | 1023.1 hPa | 0 mm | - | 0 W/m² | - |
| 1777660866 | 17.78° C | 38% | 1022.4 hPa | 0 mm | - | 14 W/m² | - |
| 1777657868 | 20° C | 34% | 1021.8 hPa | 0 mm | - | 110 W/m² | - |
| 1777649463 | 22.78° C | 25% | 1021.9 hPa | 0 mm | - | 450 W/m² | - |
| 1777647661 | 22.22° C | 28% | 1022.1 hPa | 0 mm | - | 516 W/m² | - |
| 1777632057 | 18.89° C | 31% | 1024.4 hPa | 0 mm | - | 714 W/m² | - |
| 1777630858 | 18.89° C | 32% | 1024.5 hPa | 0 mm | - | 694 W/m² | - |
| 1777625458 | 15.56° C | 38% | 1025.2 hPa | 0 mm | - | 554 W/m² | - |
| 1777623657 | 15° C | 38% | 1025.4 hPa | 0 mm | - | 490 W/m² | - |
| 1777618256 | 11.67° C | 42% | 1025.6 hPa | 0 mm | - | 270 W/m² | - |
| 1777617053 | 11.11° C | 42% | 1025.7 hPa | 0 mm | - | 220 W/m² | - |
| 1777610455 | 6.67° C | 53% | 1025.4 hPa | 0 mm | - | 10 W/m² | - |
| 1777607452 | 8.89° C | 43% | 1025.3 hPa | 0 mm | - | 0 W/m² | - |
| 1777602655 | 6.67° C | 50% | 1025.5 hPa | 0 mm | - | 0 W/m² | - |
| 1777602055 | 6.67° C | 51% | 1025.4 hPa | 0 mm | - | 0 W/m² | - |
| 1777600855 | 7.78° C | 46% | 1025.5 hPa | 0 mm | - | 0 W/m² | - |
| 1777600255 | 7.78° C | 46% | 1025.5 hPa | 0 mm | - | 0 W/m² | - |
| 1777596652 | 10° C | 38% | 1025.4 hPa | 0 mm | - | 0 W/m² | - |
| 1777591260 | 6.67° C | 54% | 1025.9 hPa | 0 mm | - | 0 W/m² | - |
| 1777590060 | 6.67° C | 55% | 1025.9 hPa | 0 mm | - | 0 W/m² | - |
| 1777585867 | 7.22° C | 54% | 1026 hPa | 0 mm | - | 0 W/m² | - |
| 1777585269 | 7.22° C | 55% | 1026 hPa | 0 mm | - | 0 W/m² | - |
* Rain latest hour (hover to see other rain measurements)
** Current wind speed in m/s (hover to see current wind gust speed)